Current Weather

Farnborough

Farnborough, United Kingdom (EGLF)

Report from: Monday, September 26, 2022 3:50 AM BST
Current time: Monday, September 26, 2022 4:04 AM BST

Nearby weather
Weather history
Weather forecast

Temperature11.0°C (51.8°F)
Dew point9.0°C (48.2°F)
Winds 12 kts (6.2 m/s, 13.8 mph) Southwest (230°)
Visibility6.2 mi. (10 km)
Clouds Few clouds 1,700 ft. (518 m)
Ceiling: Broken clouds 4,600 ft. (1,402 m)
Altimeter29.71 in.Hg (1006 mB)
Relative humidity87 %
Density altitude-67 ft. (-21 m)
Remarks Fully automated report
Flight conditions Visual Meteorological Conditions
Raw dataEGLF 260250Z AUTO 23012KT 9999 FEW017/// BKN046/// 11/09 Q1006 RERA
An error has occurred. This application may no longer respond until reloaded. Reload 🗙